createdAt,value
2023-05-08T00:02:25.412Z,100.00
2023-05-08T00:05:09.092Z,100.00
2023-05-08T00:07:52.389Z,100.00
2023-05-08T00:10:48.518Z,100.00
2023-05-08T00:13:34.925Z,100.00
2023-05-08T00:16:21.706Z,100.00
2023-05-08T00:19:04.066Z,100.00
2023-05-08T00:21:47.441Z,100.00
2023-05-08T00:24:33.827Z,100.00
2023-05-08T00:27:17.602Z,100.00
2023-05-08T00:30:01.924Z,100.00
2023-05-08T00:32:49.145Z,100.00
2023-05-08T00:35:29.915Z,100.00
2023-05-08T00:38:06.250Z,100.00
2023-05-08T00:40:46.532Z,100.00
2023-05-08T00:43:35.425Z,100.00
2023-05-08T00:46:19.681Z,100.00
2023-05-08T00:49:04.635Z,100.00
2023-05-08T00:51:43.428Z,100.00
2023-05-08T00:54:30.174Z,100.00
2023-05-08T00:57:11.916Z,100.00
2023-05-08T00:59:47.168Z,100.00
2023-05-08T01:02:23.067Z,100.00
2023-05-08T01:05:00.004Z,100.00
2023-05-08T01:07:45.827Z,100.00
2023-05-08T01:10:37.521Z,100.00
2023-05-08T01:13:33.004Z,100.00
2023-05-08T01:16:28.597Z,100.00
2023-05-08T01:19:43.652Z,100.00
2023-05-08T01:22:44.593Z,100.00
2023-05-08T01:25:34.950Z,100.00
2023-05-08T01:28:32.476Z,100.00
2023-05-08T01:31:46.774Z,100.00
2023-05-08T01:34:29.952Z,100.00
2023-05-08T01:37:14.235Z,100.00
2023-05-08T01:40:18.534Z,100.00
2023-05-08T01:43:15.372Z,100.00
2023-05-08T01:45:59.260Z,100.00
2023-05-08T01:48:50.973Z,100.00
2023-05-08T01:51:30.728Z,100.00
2023-05-08T01:54:18.290Z,100.00
2023-05-08T01:57:03.083Z,100.00
2023-05-08T01:59:51.346Z,100.00
2023-05-08T02:02:43.137Z,100.00
2023-05-08T02:05:24.217Z,100.00
2023-05-08T02:08:03.362Z,100.00
2023-05-08T02:10:39.385Z,100.00
2023-05-08T02:13:20.126Z,100.00
2023-05-08T02:16:02.054Z,100.00
2023-05-08T02:19:01.154Z,100.00
2023-05-08T02:21:56.384Z,100.00
2023-05-08T02:24:43.625Z,100.00
2023-05-08T02:27:30.896Z,100.00
2023-05-08T02:30:10.159Z,100.00
2023-05-08T02:32:53.294Z,100.00
2023-05-08T02:35:36.638Z,100.00
2023-05-08T02:38:18.281Z,100.00
2023-05-08T02:41:03.903Z,100.00
2023-05-08T02:43:52.913Z,100.00
2023-05-08T02:46:57.123Z,100.00
2023-05-08T02:49:49.280Z,100.00
2023-05-08T02:52:30.177Z,100.00
2023-05-08T02:55:15.225Z,100.00
2023-05-08T02:58:08.520Z,100.00
2023-05-08T03:01:23.542Z,100.00
2023-05-08T03:04:09.801Z,100.00
2023-05-08T03:06:59.376Z,100.00
2023-05-08T03:10:01.860Z,100.00
2023-05-08T03:12:42.804Z,100.00
2023-05-08T03:15:30.249Z,100.00
2023-05-08T03:18:30.136Z,100.00
2023-05-08T03:21:08.076Z,100.00
2023-05-08T03:23:53.945Z,100.00
2023-05-08T03:26:38.167Z,100.00
2023-05-08T03:29:24.180Z,100.00
2023-05-08T03:32:09.226Z,100.00
2023-05-08T03:34:54.053Z,100.00
2023-05-08T03:37:35.326Z,100.00
2023-05-08T03:40:16.792Z,100.00
2023-05-08T03:43:15.916Z,100.00
2023-05-08T03:45:54.765Z,100.00
2023-05-08T03:48:32.819Z,100.00
2023-05-08T03:51:06.412Z,100.00
2023-05-08T03:53:44.097Z,100.00
2023-05-08T03:56:17.608Z,100.00
2023-05-08T03:59:34.765Z,100.00
2023-05-08T04:03:05.264Z,100.00
2023-05-08T04:06:00.566Z,100.00
2023-05-08T04:08:49.102Z,100.00
2023-05-08T04:12:01.425Z,100.00
2023-05-08T04:15:06.519Z,100.00
2023-05-08T04:17:58.785Z,100.00
2023-05-08T04:20:46.257Z,100.00
2023-05-08T04:23:27.411Z,100.00
2023-05-08T04:26:39.753Z,100.00
2023-05-08T04:29:25.875Z,100.00
2023-05-08T04:32:13.698Z,100.00
2023-05-08T04:34:55.297Z,100.00
2023-05-08T04:37:40.045Z,100.00
2023-05-08T04:40:22.829Z,100.00
2023-05-08T04:43:02.239Z,100.00
2023-05-08T04:45:49.900Z,99.51
2023-05-08T04:48:28.257Z,100.00
2023-05-08T04:51:06.255Z,99.38
2023-05-08T04:53:44.198Z,97.76
2023-05-08T04:56:19.875Z,97.95
2023-05-08T04:59:01.574Z,97.60
2023-05-08T05:01:43.577Z,99.13
2023-05-08T05:04:21.838Z,98.87
2023-05-08T05:07:11.653Z,94.01
2023-05-08T05:10:01.601Z,89.07
2023-05-08T05:12:47.774Z,88.66
2023-05-08T05:15:23.762Z,90.63
2023-05-08T05:18:30.473Z,87.58
2023-05-08T05:21:16.374Z,86.17
2023-05-08T05:24:09.974Z,80.44
2023-05-08T05:26:57.503Z,80.01
2023-05-08T05:29:40.858Z,82.73
2023-05-08T05:32:26.673Z,82.30
2023-05-08T05:35:12.570Z,82.07
2023-05-08T05:37:53.138Z,83.90
2023-05-08T05:40:37.241Z,81.38
2023-05-08T05:43:25.733Z,78.09
2023-05-08T05:46:15.451Z,75.98
2023-05-08T05:49:03.633Z,76.71
2023-05-08T05:51:53.519Z,77.69
2023-05-08T05:54:46.613Z,78.31
2023-05-08T05:57:32.027Z,76.31
2023-05-08T06:00:22.479Z,75.56
2023-05-08T06:03:23.335Z,72.37
2023-05-08T06:06:07.178Z,72.91
2023-05-08T06:08:41.756Z,71.24
2023-05-08T06:11:50.921Z,71.42
2023-05-08T06:14:38.124Z,70.78
2023-05-08T06:17:25.199Z,68.17
2023-05-08T06:20:14.307Z,70.08
2023-05-08T06:23:06.040Z,67.45
2023-05-08T06:25:49.740Z,69.74
2023-05-08T06:28:31.774Z,67.23
2023-05-08T06:31:20.996Z,67.77
2023-05-08T06:34:14.586Z,63.26
2023-05-08T06:36:57.731Z,62.83
2023-05-08T06:40:03.932Z,60.21
2023-05-08T06:42:59.537Z,60.13
2023-05-08T06:45:59.179Z,58.81
2023-05-08T06:48:49.179Z,60.38
2023-05-08T06:51:45.920Z,57.59
2023-05-08T06:54:37.696Z,57.71
2023-05-08T06:57:31.625Z,57.25
2023-05-08T07:00:15.828Z,53.68
2023-05-08T07:03:01.420Z,53.73
2023-05-08T07:05:39.111Z,52.34
2023-05-08T07:08:23.028Z,55.92
2023-05-08T07:11:02.242Z,51.18
2023-05-08T07:13:46.364Z,51.73
2023-05-08T07:16:25.786Z,50.74
2023-05-08T07:19:09.068Z,48.95
2023-05-08T07:22:05.581Z,48.92
2023-05-08T07:24:59.626Z,48.68
2023-05-08T07:27:55.726Z,48.88
2023-05-08T07:30:45.030Z,49.72
2023-05-08T07:33:29.152Z,47.99
2023-05-08T07:36:04.854Z,48.75
2023-05-08T07:38:42.994Z,47.18
2023-05-08T07:41:18.289Z,46.56
2023-05-08T07:44:02.103Z,48.37
2023-05-08T07:46:45.935Z,46.87
2023-05-08T07:49:36.371Z,46.93
2023-05-08T07:52:50.823Z,47.11
2023-05-08T07:55:39.757Z,48.42
2023-05-08T07:58:28.720Z,46.48
2023-05-08T08:01:19.007Z,48.29
2023-05-08T08:03:58.148Z,47.80
2023-05-08T08:06:43.899Z,47.16
2023-05-08T08:09:24.653Z,45.85
2023-05-08T08:12:15.810Z,45.78
2023-05-08T08:14:54.796Z,48.81
2023-05-08T08:17:43.265Z,46.08
2023-05-08T08:20:45.173Z,45.06
2023-05-08T08:23:30.186Z,46.07
2023-05-08T08:26:14.817Z,46.42
2023-05-08T08:29:00.607Z,44.80
2023-05-08T08:31:52.417Z,44.30
2023-05-08T08:34:46.336Z,44.61
2023-05-08T08:37:52.974Z,43.81
2023-05-08T08:40:35.000Z,44.73
2023-05-08T08:43:26.090Z,44.53
2023-05-08T08:46:09.804Z,43.67
2023-05-08T08:48:56.223Z,44.38
2023-05-08T08:51:47.047Z,47.93
2023-05-08T08:54:45.075Z,44.04
2023-05-08T08:57:24.931Z,44.00
2023-05-08T09:00:20.987Z,42.46
2023-05-08T09:02:58.647Z,43.64
2023-05-08T09:05:32.564Z,42.38
2023-05-08T09:08:12.869Z,42.91
2023-05-08T09:11:00.579Z,40.38
2023-05-08T09:13:40.897Z,42.54
2023-05-08T09:16:21.711Z,43.03
2023-05-08T09:18:59.419Z,42.62
2023-05-08T09:21:43.209Z,43.42
2023-05-08T09:24:23.694Z,40.70
2023-05-08T09:27:25.608Z,41.89
2023-05-08T09:30:07.057Z,41.50
2023-05-08T09:32:50.686Z,42.91
2023-05-08T09:35:47.949Z,42.03
2023-05-08T09:38:40.809Z,41.54
2023-05-08T09:41:32.189Z,41.61
2023-05-08T09:44:25.868Z,42.11
2023-05-08T09:47:22.232Z,40.75
2023-05-08T09:50:19.074Z,42.19
2023-05-08T09:52:54.493Z,41.26
2023-05-08T09:55:49.335Z,38.50
2023-05-08T09:58:26.982Z,37.10
2023-05-08T10:01:13.794Z,38.57
2023-05-08T10:04:06.938Z,39.18
2023-05-08T10:06:59.043Z,40.25
2023-05-08T10:09:50.345Z,39.34
2023-05-08T10:12:38.985Z,39.35
2023-05-08T10:15:21.053Z,39.27
2023-05-08T10:18:12.389Z,38.34
2023-05-08T10:21:00.743Z,39.03
2023-05-08T10:23:46.501Z,39.79
2023-05-08T10:26:32.093Z,39.89
2023-05-08T10:29:29.173Z,37.90
2023-05-08T10:32:17.086Z,40.82
2023-05-08T10:34:59.949Z,41.16
2023-05-08T10:37:47.381Z,39.25
2023-05-08T10:40:18.836Z,38.24
2023-05-08T10:42:56.113Z,38.64
2023-05-08T10:45:30.204Z,35.59
2023-05-08T10:48:41.160Z,37.31
2023-05-08T10:51:28.059Z,37.93
2023-05-08T10:54:37.326Z,38.92
2023-05-08T10:57:24.352Z,39.87
2023-05-08T11:00:05.887Z,38.27
2023-05-08T11:02:43.777Z,37.30
2023-05-08T11:05:28.762Z,35.37
2023-05-08T11:08:23.407Z,36.15
2023-05-08T11:11:17.772Z,35.38
2023-05-08T11:13:54.682Z,38.60
2023-05-08T11:17:01.285Z,38.32
2023-05-08T11:19:38.765Z,35.11
2023-05-08T11:22:24.947Z,36.92
2023-05-08T11:25:14.250Z,35.83
2023-05-08T11:28:22.022Z,35.88
2023-05-08T11:31:04.669Z,35.19
2023-05-08T11:33:46.200Z,37.68
2023-05-08T11:36:23.165Z,35.77
2023-05-08T11:39:16.445Z,34.99
2023-05-08T11:42:14.820Z,34.44
2023-05-08T11:45:13.741Z,33.16
2023-05-08T11:48:03.878Z,33.86
2023-05-08T11:50:48.337Z,35.22
2023-05-08T11:53:34.667Z,33.50
2023-05-08T11:56:18.342Z,36.05
2023-05-08T11:59:21.591Z,33.16
2023-05-08T12:04:54.752Z,33.78
2023-05-08T12:07:58.758Z,34.46
2023-05-08T12:10:59.450Z,33.31
2023-05-08T12:13:38.261Z,34.22
2023-05-08T12:16:22.035Z,35.52
2023-05-08T12:19:08.512Z,33.60
2023-05-08T12:21:42.273Z,33.90
2023-05-08T12:24:24.469Z,33.51
2023-05-08T12:27:05.003Z,34.88
2023-05-08T12:29:45.353Z,34.52
2023-05-08T12:32:29.275Z,35.25
2023-05-08T12:35:05.073Z,35.86
2023-05-08T12:37:49.826Z,33.67
2023-05-08T12:40:35.731Z,35.14
2023-05-08T12:43:37.051Z,34.78
2023-05-08T12:46:23.017Z,34.02
2023-05-08T12:49:18.819Z,33.78
2023-05-08T12:52:04.005Z,35.65
2023-05-08T12:54:49.509Z,34.58
2023-05-08T12:57:33.229Z,35.84
2023-05-08T13:00:09.238Z,34.01
2023-05-08T13:02:59.710Z,34.86
2023-05-08T13:05:50.514Z,35.32
2023-05-08T13:08:39.324Z,34.32
2023-05-08T13:11:29.026Z,34.03
2023-05-08T13:14:09.713Z,33.52
2023-05-08T13:17:03.194Z,34.64
2023-05-08T13:19:51.044Z,33.54
2023-05-08T13:22:31.875Z,33.87
2023-05-08T13:25:14.203Z,32.60
2023-05-08T13:27:46.359Z,32.47
2023-05-08T13:30:38.414Z,32.56
2023-05-08T13:33:11.528Z,31.60
2023-05-08T13:35:55.336Z,32.02
2023-05-08T13:38:37.033Z,32.54
2023-05-08T13:41:21.203Z,32.32
2023-05-08T13:44:10.483Z,31.79
2023-05-08T13:46:52.165Z,29.93
2023-05-08T13:49:47.044Z,30.77
2023-05-08T13:52:35.460Z,29.88
2023-05-08T13:55:23.403Z,31.66
2023-05-08T13:58:07.942Z,31.99
2023-05-08T14:01:13.812Z,30.84
2023-05-08T14:03:55.209Z,31.65
2023-05-08T14:06:33.154Z,30.33
2023-05-08T14:09:10.938Z,31.30
2023-05-08T14:12:00.183Z,31.04
2023-05-08T14:14:48.064Z,32.85
2023-05-08T14:17:29.156Z,30.37
2023-05-08T14:20:12.059Z,31.56
2023-05-08T14:23:02.506Z,30.57
2023-05-08T14:25:40.330Z,30.17
2023-05-08T14:28:34.016Z,31.29
2023-05-08T14:31:20.895Z,30.86
2023-05-08T14:34:05.245Z,30.88
2023-05-08T14:36:48.268Z,31.81
2023-05-08T14:39:30.020Z,31.26
2023-05-08T14:45:01.172Z,26.01
2023-05-08T14:47:45.731Z,27.61
2023-05-08T14:50:31.026Z,29.24
2023-05-08T14:53:15.261Z,29.20
2023-05-08T14:56:01.700Z,28.21
2023-05-08T14:58:54.321Z,28.33
2023-05-08T15:01:30.012Z,30.28
2023-05-08T15:04:07.426Z,29.85
2023-05-08T15:06:51.236Z,28.77
2023-05-08T15:09:26.767Z,28.80
2023-05-08T15:12:15.473Z,30.38
2023-05-08T15:14:58.405Z,30.89
2023-05-08T15:17:46.875Z,29.08
2023-05-08T15:20:30.596Z,30.75
2023-05-08T15:23:06.175Z,30.91
2023-05-08T15:25:56.608Z,28.67
2023-05-08T15:31:50.039Z,28.67
2023-05-08T15:34:47.539Z,29.21
2023-05-08T15:37:34.685Z,29.52
2023-05-08T15:40:36.458Z,29.79
2023-05-08T15:43:28.156Z,30.54
2023-05-08T15:46:23.647Z,31.34
2023-05-08T15:49:11.700Z,31.15
2023-05-08T15:52:14.820Z,31.80
2023-05-08T15:55:09.697Z,32.63
2023-05-08T15:58:01.261Z,30.88
2023-05-08T16:00:54.126Z,30.91
2023-05-08T16:03:49.583Z,31.07
2023-05-08T16:06:35.553Z,30.45
2023-05-08T16:10:15.675Z,29.68
2023-05-08T16:12:56.897Z,30.28
2023-05-08T16:15:45.130Z,29.08
2023-05-08T16:18:31.137Z,28.16
2023-05-08T16:21:40.070Z,29.47
2023-05-08T16:27:21.538Z,28.89
2023-05-08T16:30:02.811Z,30.09
2023-05-08T16:32:49.119Z,29.94
2023-05-08T16:35:30.212Z,29.12
2023-05-08T16:38:10.393Z,30.80
2023-05-08T16:40:57.069Z,30.88
2023-05-08T16:43:34.496Z,31.17
2023-05-08T16:46:39.045Z,31.57
2023-05-08T16:49:38.822Z,33.38
2023-05-08T16:52:25.919Z,34.53
2023-05-08T16:55:13.709Z,34.08
2023-05-08T16:57:54.054Z,34.16
2023-05-08T17:00:42.482Z,35.79
2023-05-08T17:03:15.798Z,36.29
2023-05-08T17:05:55.768Z,36.96
2023-05-08T17:08:50.800Z,38.79
2023-05-08T17:11:37.850Z,40.23
2023-05-08T17:14:18.633Z,40.55
2023-05-08T17:17:04.914Z,41.15
2023-05-08T17:19:35.010Z,41.66
2023-05-08T17:22:26.266Z,45.59
2023-05-08T17:25:10.065Z,41.60
2023-05-08T17:27:56.040Z,41.51
2023-05-08T17:30:36.930Z,44.22
2023-05-08T17:33:17.544Z,44.62
2023-05-08T17:35:53.199Z,44.79
2023-05-08T17:38:36.451Z,45.53
2023-05-08T17:41:17.391Z,46.90
2023-05-08T17:43:54.172Z,47.93
2023-05-08T17:46:26.834Z,49.31
2023-05-08T17:49:05.380Z,51.04
2023-05-08T17:51:59.080Z,53.29
2023-05-08T17:55:00.479Z,52.50
2023-05-08T17:57:44.717Z,51.54
2023-05-08T18:00:30.128Z,51.88
2023-05-08T18:03:12.366Z,51.65
2023-05-08T18:05:55.010Z,54.66
2023-05-08T18:08:43.068Z,52.95
2023-05-08T18:11:47.114Z,54.87
2023-05-08T18:14:32.080Z,53.31
2023-05-08T18:17:33.504Z,60.13
2023-05-08T18:20:13.534Z,60.82
2023-05-08T18:22:55.225Z,60.40
2023-05-08T18:25:44.672Z,59.95
2023-05-08T18:28:22.463Z,61.60
2023-05-08T18:31:08.843Z,64.29
2023-05-08T18:33:59.448Z,57.14
2023-05-08T18:36:53.214Z,59.35
2023-05-08T18:39:43.352Z,60.61
2023-05-08T18:42:30.630Z,58.51
2023-05-08T18:45:37.429Z,60.08
2023-05-08T18:48:16.967Z,59.22
2023-05-08T18:50:58.798Z,58.93
2023-05-08T18:53:44.632Z,59.07
2023-05-08T18:56:25.737Z,58.46
2023-05-08T18:59:14.551Z,58.68
2023-05-08T19:02:15.290Z,60.42
2023-05-08T19:04:56.808Z,59.53
2023-05-08T19:07:35.029Z,59.57
2023-05-08T19:10:17.006Z,61.88
2023-05-08T19:13:04.116Z,61.76
2023-05-08T19:15:40.059Z,59.20
2023-05-08T19:18:31.685Z,61.72
2023-05-08T19:21:09.661Z,61.16
2023-05-08T19:24:04.192Z,60.46
2023-05-08T19:26:42.532Z,61.84
2023-05-08T19:29:39.713Z,60.17
2023-05-08T19:32:24.010Z,60.44
2023-05-08T19:35:15.204Z,60.48
2023-05-08T19:37:58.401Z,61.11
2023-05-08T19:40:55.738Z,61.36
2023-05-08T19:43:43.310Z,63.05
2023-05-08T19:46:21.517Z,61.23
2023-05-08T19:49:04.615Z,61.82
2023-05-08T19:51:50.107Z,62.17
2023-05-08T19:54:32.085Z,64.46
2023-05-08T19:57:25.043Z,65.71
2023-05-08T20:00:03.324Z,70.28
2023-05-08T20:02:48.066Z,70.34
2023-05-08T20:05:35.453Z,74.16
2023-05-08T20:08:36.856Z,71.96
2023-05-08T20:11:07.880Z,69.75
2023-05-08T20:13:58.929Z,71.77
2023-05-08T20:16:34.402Z,72.10
2023-05-08T20:19:17.763Z,70.59
2023-05-08T20:22:08.055Z,73.07
2023-05-08T20:24:48.975Z,68.42
2023-05-08T20:27:33.888Z,65.80
2023-05-08T20:30:20.948Z,63.84
2023-05-08T20:33:12.669Z,69.38
2023-05-08T20:35:57.800Z,65.76
2023-05-08T20:38:39.798Z,65.69
2023-05-08T20:41:25.408Z,66.22
2023-05-08T20:44:12.523Z,63.36
2023-05-08T20:46:51.172Z,62.60
2023-05-08T20:49:37.528Z,61.93
2023-05-08T20:52:31.977Z,62.92
2023-05-08T20:55:10.129Z,64.39
2023-05-08T20:58:03.073Z,61.73
2023-05-08T21:00:47.371Z,65.46
2023-05-08T21:03:32.268Z,61.14
2023-05-08T21:06:15.170Z,61.20
2023-05-08T21:08:52.216Z,60.86
2023-05-08T21:11:30.276Z,61.01
2023-05-08T21:14:11.153Z,59.98
2023-05-08T21:16:56.876Z,59.86
2023-05-08T21:19:45.682Z,59.59
2023-05-08T21:22:26.171Z,59.72
2023-05-08T21:25:03.867Z,59.88
2023-05-08T21:28:16.161Z,61.37
2023-05-08T21:31:02.714Z,62.20
2023-05-08T21:33:46.996Z,61.83
2023-05-08T21:36:34.159Z,62.01
2023-05-08T21:39:09.853Z,62.66
2023-05-08T21:41:51.154Z,62.00
2023-05-08T21:44:46.012Z,63.68
2023-05-08T21:47:37.672Z,62.03
2023-05-08T21:50:22.441Z,64.50
2023-05-08T21:53:02.695Z,63.25
2023-05-08T21:55:43.357Z,63.02
2023-05-08T21:58:22.808Z,63.28
2023-05-08T22:01:03.458Z,64.24
2023-05-08T22:03:41.838Z,63.57
2023-05-08T22:06:22.848Z,62.21
2023-05-08T22:09:12.277Z,62.73
2023-05-08T22:12:08.749Z,64.35
2023-05-08T22:14:43.586Z,65.29
2023-05-08T22:17:25.144Z,65.49
2023-05-08T22:20:09.194Z,64.36
2023-05-08T22:22:50.349Z,66.61
2023-05-08T22:25:29.151Z,65.80
2023-05-08T22:28:06.820Z,65.35
2023-05-08T22:30:49.679Z,65.61
2023-05-08T22:33:36.791Z,66.61
2023-05-08T22:36:14.634Z,66.58
2023-05-08T22:38:55.306Z,65.89
2023-05-08T22:41:37.307Z,66.23
2023-05-08T22:44:07.522Z,66.06
2023-05-08T22:46:46.066Z,66.94
2023-05-08T22:49:24.157Z,69.17
2023-05-08T22:52:10.473Z,67.75
2023-05-08T22:54:52.295Z,69.12
2023-05-08T22:57:30.432Z,68.74
2023-05-08T23:00:17.626Z,70.18
2023-05-08T23:03:01.088Z,72.81
2023-05-08T23:05:47.192Z,70.58
2023-05-08T23:08:27.332Z,69.94
2023-05-08T23:11:13.462Z,71.61
2023-05-08T23:13:48.678Z,69.95
2023-05-08T23:16:32.301Z,72.30
2023-05-08T23:19:10.043Z,70.94
2023-05-08T23:21:55.748Z,73.51
2023-05-08T23:24:51.085Z,72.92
2023-05-08T23:27:31.896Z,72.23
2023-05-08T23:30:17.971Z,73.05
2023-05-08T23:32:50.636Z,72.21
2023-05-08T23:35:38.227Z,73.18
2023-05-08T23:38:24.475Z,72.54
2023-05-08T23:41:08.233Z,72.38
2023-05-08T23:43:46.518Z,72.81
2023-05-08T23:46:21.741Z,73.14
2023-05-08T23:49:01.926Z,73.49
2023-05-08T23:51:43.086Z,75.89
2023-05-08T23:54:25.800Z,78.99
2023-05-08T23:57:06.523Z,81.18
2023-05-08T23:59:47.380Z,78.57
